sensor_id;sensor_type;location;lat;lon;timestamp;P1;durP1;ratioP1;P2;durP2;ratioP2
59008;SDS011;44794;42.652;23.318;2023-06-14T00:00:11;20.15;;;14.25;;
59008;SDS011;44794;42.652;23.318;2023-06-14T00:02:38;23.73;;;15.20;;
59008;SDS011;44794;42.652;23.318;2023-06-14T00:05:05;20.08;;;13.85;;
59008;SDS011;44794;42.652;23.318;2023-06-14T00:07:34;19.85;;;13.68;;
59008;SDS011;44794;42.652;23.318;2023-06-14T00:10:02;20.08;;;12.43;;
59008;SDS011;44794;42.652;23.318;2023-06-14T00:12:28;17.90;;;11.95;;
59008;SDS011;44794;42.652;23.318;2023-06-14T00:14:53;22.10;;;14.27;;
59008;SDS011;44794;42.652;23.318;2023-06-14T00:17:19;25.35;;;15.15;;
59008;SDS011;44794;42.652;23.318;2023-06-14T00:19:44;21.80;;;14.23;;
59008;SDS011;44794;42.652;23.318;2023-06-14T00:22:09;22.92;;;13.95;;
59008;SDS011;44794;42.652;23.318;2023-06-14T00:24:35;20.92;;;13.57;;
59008;SDS011;44794;42.652;23.318;2023-06-14T00:27:01;20.00;;;13.77;;
59008;SDS011;44794;42.652;23.318;2023-06-14T00:29:26;21.35;;;14.38;;
59008;SDS011;44794;42.652;23.318;2023-06-14T00:31:51;22.48;;;14.18;;
59008;SDS011;44794;42.652;23.318;2023-06-14T00:34:17;20.20;;;13.10;;
59008;SDS011;44794;42.652;23.318;2023-06-14T00:36:42;19.58;;;13.40;;
59008;SDS011;44794;42.652;23.318;2023-06-14T00:39:08;21.85;;;13.38;;
59008;SDS011;44794;42.652;23.318;2023-06-14T00:41:34;21.95;;;14.23;;
59008;SDS011;44794;42.652;23.318;2023-06-14T00:44:00;19.65;;;13.57;;
59008;SDS011;44794;42.652;23.318;2023-06-14T00:46:25;20.70;;;13.60;;
59008;SDS011;44794;42.652;23.318;2023-06-14T00:48:51;21.42;;;13.82;;
59008;SDS011;44794;42.652;23.318;2023-06-14T00:51:17;24.80;;;13.60;;
59008;SDS011;44794;42.652;23.318;2023-06-14T00:53:44;20.65;;;13.70;;
59008;SDS011;44794;42.652;23.318;2023-06-14T00:56:12;25.38;;;14.57;;
59008;SDS011;44794;42.652;23.318;2023-06-14T00:58:39;17.42;;;13.25;;
59008;SDS011;44794;42.652;23.318;2023-06-14T01:01:06;21.80;;;13.68;;
59008;SDS011;44794;42.652;23.318;2023-06-14T01:03:32;18.52;;;12.90;;
59008;SDS011;44794;42.652;23.318;2023-06-14T01:07:00;18.30;;;12.68;;
59008;SDS011;44794;42.652;23.318;2023-06-14T01:09:23;20.88;;;13.65;;
59008;SDS011;44794;42.652;23.318;2023-06-14T01:11:56;19.60;;;13.27;;
59008;SDS011;44794;42.652;23.318;2023-06-14T01:14:30;19.95;;;12.20;;
59008;SDS011;44794;42.652;23.318;2023-06-14T01:16:58;19.17;;;13.57;;
59008;SDS011;44794;42.652;23.318;2023-06-14T01:19:25;19.23;;;12.18;;
59008;SDS011;44794;42.652;23.318;2023-06-14T01:21:53;21.05;;;13.13;;
59008;SDS011;44794;42.652;23.318;2023-06-14T01:24:20;19.65;;;13.20;;
59008;SDS011;44794;42.652;23.318;2023-06-14T01:26:51;18.52;;;12.68;;
59008;SDS011;44794;42.652;23.318;2023-06-14T01:29:21;21.63;;;13.77;;
59008;SDS011;44794;42.652;23.318;2023-06-14T01:31:50;20.63;;;13.95;;
59008;SDS011;44794;42.652;23.318;2023-06-14T01:34:15;19.65;;;13.48;;
59008;SDS011;44794;42.652;23.318;2023-06-14T01:36:41;19.48;;;12.73;;
59008;SDS011;44794;42.652;23.318;2023-06-14T01:39:10;20.35;;;13.10;;
59008;SDS011;44794;42.652;23.318;2023-06-14T01:41:38;21.13;;;12.57;;
59008;SDS011;44794;42.652;23.318;2023-06-14T01:44:05;17.90;;;12.25;;
59008;SDS011;44794;42.652;23.318;2023-06-14T01:46:31;20.67;;;12.30;;
59008;SDS011;44794;42.652;23.318;2023-06-14T01:48:57;19.88;;;11.60;;
59008;SDS011;44794;42.652;23.318;2023-06-14T01:51:23;14.18;;;10.52;;
59008;SDS011;44794;42.652;23.318;2023-06-14T01:53:48;15.13;;;10.25;;
59008;SDS011;44794;42.652;23.318;2023-06-14T01:56:13;12.10;;;8.60;;
59008;SDS011;44794;42.652;23.318;2023-06-14T01:58:39;13.07;;;8.82;;
59008;SDS011;44794;42.652;23.318;2023-06-14T02:01:05;14.55;;;8.95;;
59008;SDS011;44794;42.652;23.318;2023-06-14T02:03:32;12.20;;;9.18;;
59008;SDS011;44794;42.652;23.318;2023-06-14T02:05:57;12.85;;;8.75;;
59008;SDS011;44794;42.652;23.318;2023-06-14T02:08:23;13.18;;;10.20;;
59008;SDS011;44794;42.652;23.318;2023-06-14T02:10:49;13.73;;;10.13;;
59008;SDS011;44794;42.652;23.318;2023-06-14T02:13:14;14.05;;;10.25;;
59008;SDS011;44794;42.652;23.318;2023-06-14T02:15:40;14.23;;;9.45;;
59008;SDS011;44794;42.652;23.318;2023-06-14T02:18:08;12.50;;;9.40;;
59008;SDS011;44794;42.652;23.318;2023-06-14T02:20:35;11.75;;;8.80;;
59008;SDS011;44794;42.652;23.318;2023-06-14T02:23:00;14.23;;;8.90;;
59008;SDS011;44794;42.652;23.318;2023-06-14T02:25:26;15.18;;;9.52;;
59008;SDS011;44794;42.652;23.318;2023-06-14T02:27:55;11.02;;;8.32;;
59008;SDS011;44794;42.652;23.318;2023-06-14T02:30:20;12.05;;;7.78;;
59008;SDS011;44794;42.652;23.318;2023-06-14T02:32:46;9.75;;;7.72;;
59008;SDS011;44794;42.652;23.318;2023-06-14T02:35:13;12.48;;;8.30;;
59008;SDS011;44794;42.652;23.318;2023-06-14T02:37:39;14.05;;;9.10;;
59008;SDS011;44794;42.652;23.318;2023-06-14T02:40:05;13.48;;;9.13;;
59008;SDS011;44794;42.652;23.318;2023-06-14T02:42:31;12.55;;;8.73;;
59008;SDS011;44794;42.652;23.318;2023-06-14T02:44:56;13.73;;;9.73;;
59008;SDS011;44794;42.652;23.318;2023-06-14T02:47:22;13.00;;;9.43;;
59008;SDS011;44794;42.652;23.318;2023-06-14T02:49:47;14.40;;;10.05;;
59008;SDS011;44794;42.652;23.318;2023-06-14T02:52:13;16.15;;;9.95;;
59008;SDS011;44794;42.652;23.318;2023-06-14T02:54:38;12.75;;;9.63;;
59008;SDS011;44794;42.652;23.318;2023-06-14T02:57:05;12.45;;;9.50;;
59008;SDS011;44794;42.652;23.318;2023-06-14T02:59:32;13.60;;;9.02;;
59008;SDS011;44794;42.652;23.318;2023-06-14T03:01:58;12.90;;;8.55;;
59008;SDS011;44794;42.652;23.318;2023-06-14T03:04:24;12.32;;;9.65;;
59008;SDS011;44794;42.652;23.318;2023-06-14T03:06:50;13.00;;;9.93;;
59008;SDS011;44794;42.652;23.318;2023-06-14T03:09:16;13.85;;;10.18;;
59008;SDS011;44794;42.652;23.318;2023-06-14T03:11:42;14.60;;;9.05;;
59008;SDS011;44794;42.652;23.318;2023-06-14T03:14:07;12.45;;;9.68;;
59008;SDS011;44794;42.652;23.318;2023-06-14T03:16:33;13.18;;;9.82;;
59008;SDS011;44794;42.652;23.318;2023-06-14T03:18:59;11.77;;;9.32;;
59008;SDS011;44794;42.652;23.318;2023-06-14T03:21:24;12.55;;;9.60;;
59008;SDS011;44794;42.652;23.318;2023-06-14T03:23:51;11.48;;;9.13;;
59008;SDS011;44794;42.652;23.318;2023-06-14T03:26:18;14.63;;;9.65;;
59008;SDS011;44794;42.652;23.318;2023-06-14T03:28:44;15.68;;;9.57;;
59008;SDS011;44794;42.652;23.318;2023-06-14T03:31:10;16.30;;;10.20;;
59008;SDS011;44794;42.652;23.318;2023-06-14T03:33:36;17.33;;;10.50;;
59008;SDS011;44794;42.652;23.318;2023-06-14T03:36:02;14.90;;;10.52;;
59008;SDS011;44794;42.652;23.318;2023-06-14T03:38:28;15.38;;;10.50;;
59008;SDS011;44794;42.652;23.318;2023-06-14T03:40:54;15.07;;;10.50;;
59008;SDS011;44794;42.652;23.318;2023-06-14T03:43:19;14.23;;;9.65;;
59008;SDS011;44794;42.652;23.318;2023-06-14T03:45:44;11.07;;;8.95;;
59008;SDS011;44794;42.652;23.318;2023-06-14T03:48:10;11.98;;;8.90;;
59008;SDS011;44794;42.652;23.318;2023-06-14T03:50:36;13.35;;;9.65;;
59008;SDS011;44794;42.652;23.318;2023-06-14T03:53:03;12.48;;;9.02;;
59008;SDS011;44794;42.652;23.318;2023-06-14T03:55:29;14.73;;;10.02;;
59008;SDS011;44794;42.652;23.318;2023-06-14T03:57:56;14.77;;;9.65;;
59008;SDS011;44794;42.652;23.318;2023-06-14T04:00:22;16.08;;;10.25;;
59008;SDS011;44794;42.652;23.318;2023-06-14T04:02:48;14.23;;;10.20;;
59008;SDS011;44794;42.652;23.318;2023-06-14T04:05:13;15.35;;;9.65;;
59008;SDS011;44794;42.652;23.318;2023-06-14T04:07:41;14.98;;;10.13;;
59008;SDS011;44794;42.652;23.318;2023-06-14T04:10:10;14.43;;;9.07;;
59008;SDS011;44794;42.652;23.318;2023-06-14T04:12:37;14.13;;;8.80;;
59008;SDS011;44794;42.652;23.318;2023-06-14T04:15:03;12.23;;;9.00;;
59008;SDS011;44794;42.652;23.318;2023-06-14T04:17:31;14.90;;;8.70;;
59008;SDS011;44794;42.652;23.318;2023-06-14T04:19:58;12.02;;;8.57;;
59008;SDS011;44794;42.652;23.318;2023-06-14T04:22:25;11.35;;;8.35;;
59008;SDS011;44794;42.652;23.318;2023-06-14T04:24:53;13.10;;;9.75;;
59008;SDS011;44794;42.652;23.318;2023-06-14T04:27:21;13.77;;;8.98;;
59008;SDS011;44794;42.652;23.318;2023-06-14T04:29:54;11.10;;;8.90;;
59008;SDS011;44794;42.652;23.318;2023-06-14T04:32:25;11.25;;;7.80;;
59008;SDS011;44794;42.652;23.318;2023-06-14T04:34:54;9.20;;;7.85;;
59008;SDS011;44794;42.652;23.318;2023-06-14T04:37:20;10.02;;;7.53;;
59008;SDS011;44794;42.652;23.318;2023-06-14T04:39:47;8.57;;;7.07;;
59008;SDS011;44794;42.652;23.318;2023-06-14T04:42:13;8.35;;;6.60;;
59008;SDS011;44794;42.652;23.318;2023-06-14T04:44:40;10.77;;;6.53;;
59008;SDS011;44794;42.652;23.318;2023-06-14T04:47:06;8.65;;;6.20;;
59008;SDS011;44794;42.652;23.318;2023-06-14T04:49:32;12.25;;;6.65;;
59008;SDS011;44794;42.652;23.318;2023-06-14T04:51:59;10.45;;;7.22;;
59008;SDS011;44794;42.652;23.318;2023-06-14T04:54:26;11.55;;;7.53;;
59008;SDS011;44794;42.652;23.318;2023-06-14T04:56:52;10.88;;;7.22;;
59008;SDS011;44794;42.652;23.318;2023-06-14T04:59:20;9.93;;;7.65;;
59008;SDS011;44794;42.652;23.318;2023-06-14T05:01:48;10.07;;;8.02;;
59008;SDS011;44794;42.652;23.318;2023-06-14T05:04:18;13.48;;;7.78;;
59008;SDS011;44794;42.652;23.318;2023-06-14T05:06:44;8.63;;;6.97;;
59008;SDS011;44794;42.652;23.318;2023-06-14T05:09:14;9.52;;;7.82;;
59008;SDS011;44794;42.652;23.318;2023-06-14T05:11:40;8.77;;;7.88;;
59008;SDS011;44794;42.652;23.318;2023-06-14T05:14:09;10.02;;;9.00;;
59008;SDS011;44794;42.652;23.318;2023-06-14T05:16:36;10.68;;;8.70;;
59008;SDS011;44794;42.652;23.318;2023-06-14T05:19:02;12.23;;;8.70;;
59008;SDS011;44794;42.652;23.318;2023-06-14T05:21:29;13.05;;;9.00;;
59008;SDS011;44794;42.652;23.318;2023-06-14T05:23:54;12.20;;;9.05;;
59008;SDS011;44794;42.652;23.318;2023-06-14T05:26:20;12.57;;;8.32;;
59008;SDS011;44794;42.652;23.318;2023-06-14T05:28:48;12.35;;;8.85;;
59008;SDS011;44794;42.652;23.318;2023-06-14T05:31:14;12.27;;;8.70;;
59008;SDS011;44794;42.652;23.318;2023-06-14T05:33:40;12.50;;;8.68;;
59008;SDS011;44794;42.652;23.318;2023-06-14T05:36:05;10.70;;;8.98;;
59008;SDS011;44794;42.652;23.318;2023-06-14T05:38:31;12.27;;;10.13;;
59008;SDS011;44794;42.652;23.318;2023-06-14T05:40:56;12.05;;;10.85;;
59008;SDS011;44794;42.652;23.318;2023-06-14T05:43:22;15.98;;;10.13;;
59008;SDS011;44794;42.652;23.318;2023-06-14T05:45:47;15.43;;;10.88;;
59008;SDS011;44794;42.652;23.318;2023-06-14T05:48:13;14.18;;;10.73;;
59008;SDS011;44794;42.652;23.318;2023-06-14T05:50:38;11.65;;;10.27;;
59008;SDS011;44794;42.652;23.318;2023-06-14T05:53:04;14.23;;;11.20;;
59008;SDS011;44794;42.652;23.318;2023-06-14T05:55:29;14.93;;;11.63;;
59008;SDS011;44794;42.652;23.318;2023-06-14T05:57:55;15.75;;;12.05;;
59008;SDS011;44794;42.652;23.318;2023-06-14T06:00:22;15.98;;;11.88;;
59008;SDS011;44794;42.652;23.318;2023-06-14T06:02:47;16.05;;;11.93;;
59008;SDS011;44794;42.652;23.318;2023-06-14T06:05:14;15.50;;;12.98;;
59008;SDS011;44794;42.652;23.318;2023-06-14T06:07:42;14.85;;;12.38;;
59008;SDS011;44794;42.652;23.318;2023-06-14T06:10:10;15.00;;;12.07;;
59008;SDS011;44794;42.652;23.318;2023-06-14T06:12:36;15.05;;;11.43;;
59008;SDS011;44794;42.652;23.318;2023-06-14T06:15:02;14.68;;;12.15;;
59008;SDS011;44794;42.652;23.318;2023-06-14T06:17:28;16.70;;;11.88;;
59008;SDS011;44794;42.652;23.318;2023-06-14T06:19:53;15.80;;;12.45;;
59008;SDS011;44794;42.652;23.318;2023-06-14T06:22:19;20.65;;;12.85;;
59008;SDS011;44794;42.652;23.318;2023-06-14T06:24:45;16.42;;;12.35;;
59008;SDS011;44794;42.652;23.318;2023-06-14T06:27:10;18.77;;;13.23;;
59008;SDS011;44794;42.652;23.318;2023-06-14T06:29:37;19.83;;;13.65;;
59008;SDS011;44794;42.652;23.318;2023-06-14T06:32:03;22.20;;;14.13;;
59008;SDS011;44794;42.652;23.318;2023-06-14T06:34:29;16.65;;;13.75;;
59008;SDS011;44794;42.652;23.318;2023-06-14T06:36:54;19.55;;;14.05;;
59008;SDS011;44794;42.652;23.318;2023-06-14T06:39:20;18.77;;;14.40;;
59008;SDS011;44794;42.652;23.318;2023-06-14T06:41:45;20.05;;;13.93;;
59008;SDS011;44794;42.652;23.318;2023-06-14T06:44:11;23.10;;;15.02;;
59008;SDS011;44794;42.652;23.318;2023-06-14T06:46:37;21.42;;;15.02;;
59008;SDS011;44794;42.652;23.318;2023-06-14T06:51:34;21.92;;;15.82;;
59008;SDS011;44794;42.652;23.318;2023-06-14T06:54:00;27.88;;;16.63;;
59008;SDS011;44794;42.652;23.318;2023-06-14T06:56:25;24.20;;;16.67;;
59008;SDS011;44794;42.652;23.318;2023-06-14T06:58:51;22.70;;;16.08;;
59008;SDS011;44794;42.652;23.318;2023-06-14T07:01:17;23.90;;;16.58;;
59008;SDS011;44794;42.652;23.318;2023-06-14T07:03:44;25.30;;;16.42;;
59008;SDS011;44794;42.652;23.318;2023-06-14T07:06:10;23.73;;;16.02;;
59008;SDS011;44794;42.652;23.318;2023-06-14T07:08:36;22.05;;;15.63;;
59008;SDS011;44794;42.652;23.318;2023-06-14T07:11:03;20.65;;;15.32;;
59008;SDS011;44794;42.652;23.318;2023-06-14T07:13:29;22.88;;;15.38;;
59008;SDS011;44794;42.652;23.318;2023-06-14T07:15:57;19.88;;;15.13;;
59008;SDS011;44794;42.652;23.318;2023-06-14T07:18:23;18.08;;;13.05;;
59008;SDS011;44794;42.652;23.318;2023-06-14T07:20:48;21.27;;;14.57;;
59008;SDS011;44794;42.652;23.318;2023-06-14T07:23:15;19.05;;;13.30;;
59008;SDS011;44794;42.652;23.318;2023-06-14T07:25:40;23.77;;;15.05;;
59008;SDS011;44794;42.652;23.318;2023-06-14T07:28:06;18.38;;;14.30;;
59008;SDS011;44794;42.652;23.318;2023-06-14T07:30:32;20.75;;;13.52;;
59008;SDS011;44794;42.652;23.318;2023-06-14T07:32:57;18.55;;;14.57;;
59008;SDS011;44794;42.652;23.318;2023-06-14T07:35:23;19.02;;;14.10;;
59008;SDS011;44794;42.652;23.318;2023-06-14T07:37:48;18.65;;;14.15;;
59008;SDS011;44794;42.652;23.318;2023-06-14T07:40:14;20.80;;;14.65;;
59008;SDS011;44794;42.652;23.318;2023-06-14T07:42:41;25.10;;;14.57;;
59008;SDS011;44794;42.652;23.318;2023-06-14T07:45:07;22.48;;;15.00;;
59008;SDS011;44794;42.652;23.318;2023-06-14T07:47:33;18.50;;;12.95;;
59008;SDS011;44794;42.652;23.318;2023-06-14T07:49:58;19.30;;;13.80;;
59008;SDS011;44794;42.652;23.318;2023-06-14T07:52:24;16.75;;;13.60;;
59008;SDS011;44794;42.652;23.318;2023-06-14T07:54:50;20.30;;;15.15;;
59008;SDS011;44794;42.652;23.318;2023-06-14T07:57:15;17.40;;;13.55;;
59008;SDS011;44794;42.652;23.318;2023-06-14T07:59:40;18.77;;;13.75;;
59008;SDS011;44794;42.652;23.318;2023-06-14T08:02:06;17.80;;;12.70;;
59008;SDS011;44794;42.652;23.318;2023-06-14T08:04:31;19.40;;;14.40;;
59008;SDS011;44794;42.652;23.318;2023-06-14T08:06:58;22.33;;;14.20;;
59008;SDS011;44794;42.652;23.318;2023-06-14T08:09:24;25.75;;;13.93;;
59008;SDS011;44794;42.652;23.318;2023-06-14T08:11:50;18.92;;;12.65;;
59008;SDS011;44794;42.652;23.318;2023-06-14T08:14:16;17.73;;;13.00;;
59008;SDS011;44794;42.652;23.318;2023-06-14T08:16:41;14.77;;;13.00;;
59008;SDS011;44794;42.652;23.318;2023-06-14T08:19:07;17.05;;;12.50;;
59008;SDS011;44794;42.652;23.318;2023-06-14T08:21:32;19.90;;;13.75;;
59008;SDS011;44794;42.652;23.318;2023-06-14T08:23:58;21.02;;;13.90;;
59008;SDS011;44794;42.652;23.318;2023-06-14T08:26:24;16.73;;;13.20;;
59008;SDS011;44794;42.652;23.318;2023-06-14T08:28:54;18.52;;;13.98;;
59008;SDS011;44794;42.652;23.318;2023-06-14T08:31:20;24.30;;;14.38;;
59008;SDS011;44794;42.652;23.318;2023-06-14T08:33:45;17.88;;;14.13;;
59008;SDS011;44794;42.652;23.318;2023-06-14T08:36:11;18.40;;;13.88;;
59008;SDS011;44794;42.652;23.318;2023-06-14T08:38:37;24.98;;;13.68;;
59008;SDS011;44794;42.652;23.318;2023-06-14T08:41:03;20.65;;;14.13;;
59008;SDS011;44794;42.652;23.318;2023-06-14T08:43:31;23.55;;;14.00;;
59008;SDS011;44794;42.652;23.318;2023-06-14T08:45:58;19.35;;;14.02;;
59008;SDS011;44794;42.652;23.318;2023-06-14T08:48:26;21.80;;;12.48;;
59008;SDS011;44794;42.652;23.318;2023-06-14T08:50:53;18.13;;;13.65;;
59008;SDS011;44794;42.652;23.318;2023-06-14T08:53:26;18.55;;;13.90;;
59008;SDS011;44794;42.652;23.318;2023-06-14T08:55:53;19.70;;;13.88;;
59008;SDS011;44794;42.652;23.318;2023-06-14T08:58:20;16.08;;;13.02;;
59008;SDS011;44794;42.652;23.318;2023-06-14T09:00:49;20.88;;;14.38;;
59008;SDS011;44794;42.652;23.318;2023-06-14T09:03:17;15.57;;;13.07;;
59008;SDS011;44794;42.652;23.318;2023-06-14T09:05:45;17.80;;;13.23;;
59008;SDS011;44794;42.652;23.318;2023-06-14T09:08:12;20.98;;;13.63;;
59008;SDS011;44794;42.652;23.318;2023-06-14T09:10:37;16.17;;;13.23;;
59008;SDS011;44794;42.652;23.318;2023-06-14T09:13:05;21.85;;;13.95;;
59008;SDS011;44794;42.652;23.318;2023-06-14T09:15:31;18.63;;;14.30;;
59008;SDS011;44794;42.652;23.318;2023-06-14T09:17:57;19.55;;;14.30;;
59008;SDS011;44794;42.652;23.318;2023-06-14T09:20:25;18.27;;;13.63;;
59008;SDS011;44794;42.652;23.318;2023-06-14T09:22:51;18.55;;;14.50;;
59008;SDS011;44794;42.652;23.318;2023-06-14T09:25:18;18.02;;;14.40;;
59008;SDS011;44794;42.652;23.318;2023-06-14T09:27:45;17.45;;;14.10;;
59008;SDS011;44794;42.652;23.318;2023-06-14T09:30:12;16.60;;;13.30;;
59008;SDS011;44794;42.652;23.318;2023-06-14T09:32:38;20.73;;;13.65;;
59008;SDS011;44794;42.652;23.318;2023-06-14T09:35:07;17.30;;;13.60;;
59008;SDS011;44794;42.652;23.318;2023-06-14T09:37:33;17.70;;;14.13;;
59008;SDS011;44794;42.652;23.318;2023-06-14T09:39:59;19.20;;;13.77;;
59008;SDS011;44794;42.652;23.318;2023-06-14T09:42:25;16.77;;;14.00;;
59008;SDS011;44794;42.652;23.318;2023-06-14T09:44:51;16.60;;;13.80;;
59008;SDS011;44794;42.652;23.318;2023-06-14T09:49:47;19.10;;;13.35;;
59008;SDS011;44794;42.652;23.318;2023-06-14T09:52:14;15.90;;;12.38;;
59008;SDS011;44794;42.652;23.318;2023-06-14T09:54:41;15.25;;;13.60;;
59008;SDS011;44794;42.652;23.318;2023-06-14T09:57:09;15.98;;;12.95;;
59008;SDS011;44794;42.652;23.318;2023-06-14T09:59:36;17.08;;;13.18;;
59008;SDS011;44794;42.652;23.318;2023-06-14T10:02:18;17.63;;;12.95;;
59008;SDS011;44794;42.652;23.318;2023-06-14T10:10:29;20.67;;;13.95;;
59008;SDS011;44794;42.652;23.318;2023-06-14T10:12:55;18.35;;;14.02;;
59008;SDS011;44794;42.652;23.318;2023-06-14T10:20:41;18.00;;;13.68;;
59008;SDS011;44794;42.652;23.318;2023-06-14T10:23:18;18.48;;;13.65;;
59008;SDS011;44794;42.652;23.318;2023-06-14T10:25:49;20.58;;;15.43;;
59008;SDS011;44794;42.652;23.318;2023-06-14T10:28:20;24.30;;;14.63;;
59008;SDS011;44794;42.652;23.318;2023-06-14T10:33:31;20.08;;;15.60;;
59008;SDS011;44794;42.652;23.318;2023-06-14T10:36:11;18.52;;;14.40;;
59008;SDS011;44794;42.652;23.318;2023-06-14T10:38:56;17.02;;;14.07;;
59008;SDS011;44794;42.652;23.318;2023-06-14T10:41:37;19.38;;;14.10;;
59008;SDS011;44794;42.652;23.318;2023-06-14T10:46:47;18.33;;;13.68;;
59008;SDS011;44794;42.652;23.318;2023-06-14T10:49:16;17.40;;;13.00;;
59008;SDS011;44794;42.652;23.318;2023-06-14T10:51:45;16.33;;;12.85;;
59008;SDS011;44794;42.652;23.318;2023-06-14T10:54:15;17.20;;;12.43;;
59008;SDS011;44794;42.652;23.318;2023-06-14T10:59:13;15.70;;;12.88;;
59008;SDS011;44794;42.652;23.318;2023-06-14T11:04:47;17.88;;;12.23;;
59008;SDS011;44794;42.652;23.318;2023-06-14T11:12:34;16.38;;;12.57;;
59008;SDS011;44794;42.652;23.318;2023-06-14T11:15:01;17.25;;;12.63;;
59008;SDS011;44794;42.652;23.318;2023-06-14T11:17:27;14.95;;;11.82;;
59008;SDS011;44794;42.652;23.318;2023-06-14T11:20:10;14.30;;;12.10;;
59008;SDS011;44794;42.652;23.318;2023-06-14T11:22:44;21.92;;;12.57;;
59008;SDS011;44794;42.652;23.318;2023-06-14T11:25:13;19.80;;;11.55;;
59008;SDS011;44794;42.652;23.318;2023-06-14T11:27:43;14.30;;;11.55;;
59008;SDS011;44794;42.652;23.318;2023-06-14T11:30:09;16.23;;;12.73;;
59008;SDS011;44794;42.652;23.318;2023-06-14T11:32:36;14.57;;;12.27;;
59008;SDS011;44794;42.652;23.318;2023-06-14T11:35:02;15.10;;;11.13;;
59008;SDS011;44794;42.652;23.318;2023-06-14T11:37:28;13.50;;;10.82;;
59008;SDS011;44794;42.652;23.318;2023-06-14T11:39:58;15.23;;;10.75;;
59008;SDS011;44794;42.652;23.318;2023-06-14T11:42:27;17.08;;;10.70;;
59008;SDS011;44794;42.652;23.318;2023-06-14T11:44:53;12.82;;;9.52;;
59008;SDS011;44794;42.652;23.318;2023-06-14T11:47:20;12.32;;;10.00;;
59008;SDS011;44794;42.652;23.318;2023-06-14T11:49:46;11.20;;;9.15;;
59008;SDS011;44794;42.652;23.318;2023-06-14T11:52:11;12.35;;;9.05;;
59008;SDS011;44794;42.652;23.318;2023-06-14T11:54:37;10.82;;;8.80;;
59008;SDS011;44794;42.652;23.318;2023-06-14T11:57:05;13.23;;;9.05;;
59008;SDS011;44794;42.652;23.318;2023-06-14T11:59:32;12.38;;;9.52;;
59008;SDS011;44794;42.652;23.318;2023-06-14T12:02:02;10.65;;;9.07;;
59008;SDS011;44794;42.652;23.318;2023-06-14T12:04:29;14.02;;;9.35;;
59008;SDS011;44794;42.652;23.318;2023-06-14T12:06:55;13.20;;;9.77;;
59008;SDS011;44794;42.652;23.318;2023-06-14T12:09:22;11.05;;;9.05;;
59008;SDS011;44794;42.652;23.318;2023-06-14T12:11:49;13.10;;;8.68;;
59008;SDS011;44794;42.652;23.318;2023-06-14T12:14:15;10.68;;;8.88;;
59008;SDS011;44794;42.652;23.318;2023-06-14T12:16:40;10.02;;;8.68;;
59008;SDS011;44794;42.652;23.318;2023-06-14T12:21:41;11.73;;;9.23;;
59008;SDS011;44794;42.652;23.318;2023-06-14T12:24:08;10.30;;;8.85;;
59008;SDS011;44794;42.652;23.318;2023-06-14T12:26:39;14.30;;;8.25;;
59008;SDS011;44794;42.652;23.318;2023-06-14T12:29:08;11.45;;;8.13;;
59008;SDS011;44794;42.652;23.318;2023-06-14T12:31:35;8.80;;;7.90;;
59008;SDS011;44794;42.652;23.318;2023-06-14T12:34:00;9.23;;;7.95;;
59008;SDS011;44794;42.652;23.318;2023-06-14T12:36:26;9.18;;;7.57;;
59008;SDS011;44794;42.652;23.318;2023-06-14T12:38:52;10.73;;;7.90;;
59008;SDS011;44794;42.652;23.318;2023-06-14T12:41:21;14.55;;;8.40;;
59008;SDS011;44794;42.652;23.318;2023-06-14T12:43:47;13.20;;;8.55;;
59008;SDS011;44794;42.652;23.318;2023-06-14T12:46:13;12.05;;;8.63;;
59008;SDS011;44794;42.652;23.318;2023-06-14T12:48:38;10.57;;;9.13;;
59008;SDS011;44794;42.652;23.318;2023-06-14T12:51:04;13.13;;;8.82;;
59008;SDS011;44794;42.652;23.318;2023-06-14T12:53:30;14.48;;;8.75;;
59008;SDS011;44794;42.652;23.318;2023-06-14T12:55:55;11.98;;;8.23;;
59008;SDS011;44794;42.652;23.318;2023-06-14T12:58:21;10.52;;;8.38;;
59008;SDS011;44794;42.652;23.318;2023-06-14T13:00:46;10.38;;;8.63;;
59008;SDS011;44794;42.652;23.318;2023-06-14T13:03:12;10.05;;;8.57;;
59008;SDS011;44794;42.652;23.318;2023-06-14T13:05:38;16.20;;;8.75;;
59008;SDS011;44794;42.652;23.318;2023-06-14T13:08:06;12.30;;;9.20;;
59008;SDS011;44794;42.652;23.318;2023-06-14T13:10:33;12.15;;;8.85;;
59008;SDS011;44794;42.652;23.318;2023-06-14T13:12:58;11.45;;;8.75;;
59008;SDS011;44794;42.652;23.318;2023-06-14T13:15:25;13.23;;;8.88;;
59008;SDS011;44794;42.652;23.318;2023-06-14T13:17:51;12.15;;;9.73;;
59008;SDS011;44794;42.652;23.318;2023-06-14T13:20:16;12.18;;;10.05;;
59008;SDS011;44794;42.652;23.318;2023-06-14T13:22:42;12.23;;;10.52;;
59008;SDS011;44794;42.652;23.318;2023-06-14T13:25:07;14.57;;;10.68;;
59008;SDS011;44794;42.652;23.318;2023-06-14T13:27:33;18.70;;;10.60;;
59008;SDS011;44794;42.652;23.318;2023-06-14T13:29:58;16.90;;;10.75;;
59008;SDS011;44794;42.652;23.318;2023-06-14T13:32:24;21.80;;;10.60;;
59008;SDS011;44794;42.652;23.318;2023-06-14T13:34:49;18.50;;;10.60;;
59008;SDS011;44794;42.652;23.318;2023-06-14T13:37:15;18.15;;;11.65;;
59008;SDS011;44794;42.652;23.318;2023-06-14T13:39:41;19.88;;;12.25;;
59008;SDS011;44794;42.652;23.318;2023-06-14T13:42:06;16.77;;;11.60;;
59008;SDS011;44794;42.652;23.318;2023-06-14T13:44:32;16.65;;;11.98;;
59008;SDS011;44794;42.652;23.318;2023-06-14T13:46:57;16.73;;;12.02;;
59008;SDS011;44794;42.652;23.318;2023-06-14T13:49:23;18.15;;;13.48;;
59008;SDS011;44794;42.652;23.318;2023-06-14T13:51:48;17.45;;;12.85;;
59008;SDS011;44794;42.652;23.318;2023-06-14T13:54:14;17.77;;;13.07;;
59008;SDS011;44794;42.652;23.318;2023-06-14T13:56:43;19.50;;;13.38;;
59008;SDS011;44794;42.652;23.318;2023-06-14T13:59:09;18.65;;;12.98;;
59008;SDS011;44794;42.652;23.318;2023-06-14T14:01:35;19.77;;;13.48;;
59008;SDS011;44794;42.652;23.318;2023-06-14T14:04:01;17.15;;;11.98;;
59008;SDS011;44794;42.652;23.318;2023-06-14T14:06:27;15.38;;;11.15;;
59008;SDS011;44794;42.652;23.318;2023-06-14T14:08:52;16.00;;;11.60;;
59008;SDS011;44794;42.652;23.318;2023-06-14T14:11:18;15.48;;;10.90;;
59008;SDS011;44794;42.652;23.318;2023-06-14T14:13:45;16.02;;;9.70;;
59008;SDS011;44794;42.652;23.318;2023-06-14T14:16:12;13.93;;;10.38;;
59008;SDS011;44794;42.652;23.318;2023-06-14T14:18:38;13.88;;;10.95;;
59008;SDS011;44794;42.652;23.318;2023-06-14T14:21:03;13.15;;;10.85;;
59008;SDS011;44794;42.652;23.318;2023-06-14T14:23:29;12.00;;;9.88;;
59008;SDS011;44794;42.652;23.318;2023-06-14T14:25:54;13.18;;;9.52;;
59008;SDS011;44794;42.652;23.318;2023-06-14T14:28:20;12.90;;;10.60;;
59008;SDS011;44794;42.652;23.318;2023-06-14T14:30:46;13.40;;;10.27;;
59008;SDS011;44794;42.652;23.318;2023-06-14T14:33:15;11.63;;;8.88;;
59008;SDS011;44794;42.652;23.318;2023-06-14T14:35:45;12.02;;;8.13;;
59008;SDS011;44794;42.652;23.318;2023-06-14T14:38:11;13.38;;;8.43;;
59008;SDS011;44794;42.652;23.318;2023-06-14T14:40:38;9.75;;;7.80;;
59008;SDS011;44794;42.652;23.318;2023-06-14T14:43:05;9.68;;;7.57;;
59008;SDS011;44794;42.652;23.318;2023-06-14T14:45:30;12.32;;;8.43;;